Time;durP1;ratioP1;P1;durP2;ratioP2;P2;SDS_P1;SDS_P2;PMS_P1;PMS_P2;Temp;Humidity;BMP_temperature;BMP_pressure;BME280_temperature;BME280_humidity;BME280_pressure;Samples;Min_cycle;Max_cycle;Signal;HPM_P1;HPM_P2
2021/08/31 00:02:19;;;;;;;16.93;14.03;;;;;;;19.09;100.00;99025.59;1703155;84;21046;-71
2021/08/31 00:04:46;;;;;;;17.82;14.38;;;;;;;19.06;100.00;99033.06;1678667;84;21098;-73
2021/08/31 00:07:14;;;;;;;17.10;14.38;;;;;;;19.01;100.00;99038.12;1694918;84;21034;-73
2021/08/31 00:09:42;;;;;;;16.32;14.60;;;;;;;18.99;100.00;99027.31;1697223;84;21010;-74
2021/08/31 00:12:11;;;;;;;22.90;12.58;;;;;;;18.94;100.00;99032.36;1703186;84;21058;-74
2021/08/31 00:14:38;;;;;;;15.28;13.18;;;;;;;18.92;100.00;99038.68;1701479;84;21066;-72
2021/08/31 00:17:06;;;;;;;15.80;13.60;;;;;;;18.90;100.00;99035.47;1669417;85;21078;-75
2021/08/31 00:19:33;;;;;;;16.60;13.30;;;;;;;18.90;100.00;99044.20;1673112;84;21148;-72
2021/08/31 00:22:00;;;;;;;16.45;13.62;;;;;;;18.88;100.00;99051.91;1660857;85;20995;-76
2021/08/31 00:24:28;;;;;;;13.78;12.43;;;;;;;18.86;100.00;99052.77;1683437;85;21277;-72
2021/08/31 00:26:55;;;;;;;12.30;11.08;;;;;;;18.86;100.00;99063.12;1650202;86;21504;-73
2021/08/31 00:29:22;;;;;;;14.58;12.65;;;;;;;18.87;100.00;99069.37;1664520;84;22198;-71
2021/08/31 00:31:49;;;;;;;13.65;12.25;;;;;;;18.86;100.00;99059.59;1646826;86;21795;-73
2021/08/31 00:34:15;;;;;;;15.48;12.98;;;;;;;18.83;100.00;99056.95;1661041;86;21040;-74
2021/08/31 00:36:42;;;;;;;16.48;13.35;;;;;;;18.79;100.00;99056.55;1683788;84;20995;-74
2021/08/31 00:39:09;;;;;;;15.48;12.13;;;;;;;18.74;100.00;99053.42;1667651;85;20996;-73
2021/08/31 00:41:36;;;;;;;12.70;11.50;;;;;;;18.71;100.00;99042.59;1674498;83;21009;-75
2021/08/31 00:44:04;;;;;;;15.38;13.28;;;;;;;18.70;100.00;99056.55;1610041;87;21571;-72
2021/08/31 00:46:31;;;;;;;14.30;12.80;;;;;;;18.68;100.00;99040.52;1646312;86;21509;-76
2021/08/31 00:48:58;;;;;;;17.00;14.25;;;;;;;18.65;100.00;99056.70;1647396;86;21041;-79
2021/08/31 00:51:24;;;;;;;14.80;13.18;;;;;;;18.60;100.00;99064.46;1632494;86;21001;-75
2021/08/31 00:53:53;;;;;;;14.75;13.25;;;;;;;18.58;100.00;99074.05;1644358;86;21764;-76
2021/08/31 00:56:20;;;;;;;17.50;11.85;;;;;;;18.56;100.00;99070.86;1673790;84;21091;-75
2021/08/31 00:58:46;;;;;;;14.10;11.48;;;;;;;18.55;100.00;99074.14;1623843;85;21087;-76
2021/08/31 01:01:13;;;;;;;13.30;11.88;;;;;;;18.53;100.00;99080.45;1665184;85;22160;-74
2021/08/31 01:03:44;;;;;;;15.15;12.47;;;;;;;18.52;100.00;99084.26;1685090;85;21015;-77
2021/08/31 01:06:11;;;;;;;16.52;13.68;;;;;;;18.52;100.00;99080.73;1684041;85;21566;-77
2021/08/31 01:08:37;;;;;;;11.10;9.85;;;;;;;18.49;100.00;99074.01;1664847;85;21875;-76
2021/08/31 01:11:03;;;;;;;16.85;12.07;;;;;;;18.49;100.00;99082.18;1690149;83;21556;-77
2021/08/31 01:13:34;;;;;;;17.75;11.83;;;;;;;18.49;100.00;99080.81;1643519;85;20975;-84
2021/08/31 01:16:03;;;;;;;13.58;11.30;;;;;;;18.49;100.00;99080.81;1663953;83;21034;-73
2021/08/31 01:18:30;;;;;;;10.45;9.33;;;;;;;18.48;100.00;99074.31;1718579;83;20989;-75
2021/08/31 01:20:59;;;;;;;11.53;10.38;;;;;;;18.45;100.00;99081.22;1716737;83;21194;-75
2021/08/31 01:23:26;;;;;;;12.33;11.03;;;;;;;18.43;100.00;99083.99;1690683;84;21038;-74
2021/08/31 01:25:53;;;;;;;11.28;9.98;;;;;;;18.41;100.00;99076.72;1686968;83;20987;-74
2021/08/31 01:28:30;;;;;;;12.45;11.15;;;;;;;18.40;100.00;99094.17;1658004;84;20982;-75
2021/08/31 01:30:58;;;;;;;14.15;10.98;;;;;;;18.38;100.00;99089.58;1703359;84;20991;-76
2021/08/31 01:33:30;;;;;;;16.57;12.45;;;;;;;18.37;100.00;99081.97;1703351;84;21044;-74
2021/08/31 01:35:57;;;;;;;11.75;10.50;;;;;;;18.36;100.00;99088.56;1696947;84;21011;-75
2021/08/31 01:38:24;;;;;;;12.63;10.55;;;;;;;18.36;100.00;99083.11;1702938;83;21003;-77
2021/08/31 01:40:52;;;;;;;11.43;10.32;;;;;;;18.33;100.00;99097.34;1703135;84;20950;-75
2021/08/31 01:43:25;;;;;;;12.05;10.82;;;;;;;18.33;100.00;99093.81;1702997;83;21569;-74
2021/08/31 01:45:52;;;;;;;13.47;11.53;;;;;;;18.30;100.00;99100.14;1690568;84;21295;-74
2021/08/31 01:48:19;;;;;;;13.25;11.85;;;;;;;18.31;100.00;99091.42;1702486;84;21015;-74
2021/08/31 01:50:45;;;;;;;12.80;9.58;;;;;;;18.30;100.00;99093.34;1703197;83;20974;-72
2021/08/31 01:53:12;;;;;;;11.90;10.65;;;;;;;18.34;100.00;99086.70;1685730;84;21024;-73
2021/08/31 01:55:39;;;;;;;12.30;10.32;;;;;;;18.35;100.00;99088.86;1702633;84;21074;-73
2021/08/31 01:58:06;;;;;;;11.73;10.40;;;;;;;18.37;100.00;99092.86;1677254;84;21262;-72
2021/08/31 02:00:33;;;;;;;12.70;10.25;;;;;;;18.34;100.00;99107.12;1703488;84;21026;-74
2021/08/31 02:03:00;;;;;;;10.78;9.63;;;;;;;18.30;100.00;99090.61;1701290;84;21016;-74
2021/08/31 02:05:26;;;;;;;16.95;12.03;;;;;;;18.29;100.00;99097.73;1660909;84;21079;-74
2021/08/31 02:07:53;;;;;;;12.00;10.70;;;;;;;18.28;100.00;99096.11;1703213;84;21038;-75
2021/08/31 02:10:19;;;;;;;14.23;11.73;;;;;;;18.29;100.00;99097.17;1702484;84;21214;-73
2021/08/31 02:12:46;;;;;;;11.57;10.35;;;;;;;18.32;100.00;99103.12;1703066;84;21491;-77
2021/08/31 02:15:13;;;;;;;15.03;12.45;;;;;;;18.32;100.00;99101.17;1667823;85;21517;-73
2021/08/31 02:17:40;;;;;;;10.15;9.13;;;;;;;18.33;100.00;99093.25;1642048;85;21003;-74
2021/08/31 02:20:07;;;;;;;12.47;9.50;;;;;;;18.34;100.00;99103.03;1681886;85;21055;-75
2021/08/31 02:22:34;;;;;;;13.90;10.05;;;;;;;18.35;100.00;99099.75;1666045;84;21016;-75
2021/08/31 02:25:01;;;;;;;11.10;10.00;;;;;;;18.32;100.00;99088.14;1683720;85;21178;-75
2021/08/31 02:27:28;;;;;;;13.25;10.35;;;;;;;18.27;100.00;99091.81;1681659;85;21455;-76
2021/08/31 02:29:55;;;;;;;10.78;9.65;;;;;;;18.24;100.00;99091.86;1683371;85;20999;-74
2021/08/31 02:32:21;;;;;;;10.45;9.20;;;;;;;18.25;100.00;99102.20;1689180;84;20959;-74
2021/08/31 02:34:48;;;;;;;12.53;8.63;;;;;;;18.23;100.00;99090.26;1688733;84;21147;-75
2021/08/31 02:37:15;;;;;;;11.00;8.85;;;;;;;18.21;100.00;99097.95;1687050;84;21038;-75
2021/08/31 02:39:41;;;;;;;9.28;8.38;;;;;;;18.22;100.00;99094.67;1660061;85;21508;-74
2021/08/31 02:42:08;;;;;;;10.98;9.88;;;;;;;18.20;100.00;99107.23;1685737;85;20921;-73
2021/08/31 02:44:35;;;;;;;11.03;9.58;;;;;;;18.18;100.00;99104.00;1688631;84;20948;-72
2021/08/31 02:47:01;;;;;;;12.28;9.18;;;;;;;18.18;100.00;99102.64;1667435;84;21114;-74
2021/08/31 02:49:28;;;;;;;9.13;8.00;;;;;;;18.20;100.00;99105.06;1670060;85;21023;-74
2021/08/31 02:51:57;;;;;;;11.33;8.35;;;;;;;18.22;100.00;99104.20;1659409;86;21055;-76
2021/08/31 02:54:23;;;;;;;13.75;8.90;;;;;;;18.20;100.00;99114.03;1659654;86;21096;-74
2021/08/31 02:56:50;;;;;;;12.65;8.63;;;;;;;18.19;100.00;99115.14;1661000;85;21036;-73
2021/08/31 02:59:17;;;;;;;10.63;8.33;;;;;;;18.18;100.00;99118.16;1673099;85;21174;-76
2021/08/31 03:04:23;;;;;;;9.45;7.83;;;;;;;18.16;100.00;99114.97;1665930;84;20936;-73
2021/08/31 03:06:50;;;;;;;8.53;7.35;;;;;;;18.16;100.00;99117.14;1673052;83;21544;-73
2021/08/31 03:09:19;;;;;;;11.40;8.20;;;;;;;18.14;100.00;99109.83;1650591;86;21514;-74
2021/08/31 03:11:46;;;;;;;9.45;7.80;;;;;;;18.14;100.00;99126.72;1656009;86;21197;-74
2021/08/31 03:14:12;;;;;;;12.28;7.62;;;;;;;18.14;100.00;99119.91;1657275;86;21066;-73
2021/08/31 03:16:39;;;;;;;7.47;6.78;;;;;;;18.12;100.00;99118.89;1657296;84;21085;-75
2021/08/31 03:19:06;;;;;;;9.13;8.05;;;;;;;18.10;100.00;99121.11;1726013;82;21542;-75
2021/08/31 03:21:32;;;;;;;9.48;7.53;;;;;;;18.11;100.00;99123.27;1721160;82;21003;-75
2021/08/31 03:23:59;;;;;;;10.05;8.00;;;;;;;18.11;100.00;99128.16;1741416;82;21108;-73
2021/08/31 03:26:26;;;;;;;11.63;7.80;;;;;;;18.12;100.00;99122.97;1682435;84;21035;-74
2021/08/31 03:28:53;;;;;;;10.15;7.95;;;;;;;18.13;100.00;99126.50;1677293;84;20978;-76
2021/08/31 03:31:20;;;;;;;9.58;7.92;;;;;;;18.13;100.00;99121.83;1696134;84;21004;-77
2021/08/31 03:33:49;;;;;;;14.50;8.83;;;;;;;18.13;100.00;99125.91;1696317;84;21016;-76
2021/08/31 03:36:16;;;;;;;9.08;8.18;;;;;;;18.13;100.00;99136.80;1695298;84;21245;-78
2021/08/31 03:38:43;;;;;;;9.30;7.30;;;;;;;18.14;100.00;99118.00;1696924;83;21016;-76
2021/08/31 03:41:10;;;;;;;10.38;9.10;;;;;;;18.16;100.00;99132.67;1674673;84;20996;-75
2021/08/31 03:43:36;;;;;;;16.95;9.63;;;;;;;18.16;100.00;99138.11;1696647;84;20955;-77
2021/08/31 03:46:03;;;;;;;13.78;11.83;;;;;;;18.14;100.00;99125.36;1664774;84;21011;-76
2021/08/31 03:48:30;;;;;;;11.08;9.38;;;;;;;18.15;100.00;99131.05;1674718;84;21325;-76
2021/08/31 03:50:57;;;;;;;12.33;10.58;;;;;;;18.15;100.00;99126.41;1677045;84;21028;-76
2021/08/31 03:53:25;;;;;;;14.93;10.98;;;;;;;18.13;100.00;99127.27;1744876;82;20935;-76
2021/08/31 03:55:52;;;;;;;11.50;10.05;;;;;;;18.10;100.00;99131.99;1744257;82;20979;-74
2021/08/31 03:58:19;;;;;;;12.00;9.05;;;;;;;18.07;100.00;99119.58;1744763;82;21460;-76
2021/08/31 04:00:45;;;;;;;12.20;10.13;;;;;;;18.05;100.00;99124.52;1745020;81;21858;-76
2021/08/31 04:03:12;;;;;;;9.53;8.50;;;;;;;18.03;100.00;99129.48;1744617;82;20995;-76
2021/08/31 04:05:39;;;;;;;15.75;10.38;;;;;;;18.01;100.00;99127.06;1738032;82;21006;-75
2021/08/31 04:08:06;;;;;;;15.80;10.70;;;;;;;17.95;100.00;99124.23;1744941;82;21035;-74
2021/08/31 04:10:33;;;;;;;11.45;9.85;;;;;;;17.94;100.00;99125.92;1744809;81;20999;-73
2021/08/31 04:13:01;;;;;;;9.80;8.65;;;;;;;17.92;100.00;99129.50;1720377;82;20926;-71
2021/08/31 04:15:29;;;;;;;10.68;8.55;;;;;;;17.90;100.00;99124.36;1740877;81;20927;-74
2021/08/31 04:17:57;;;;;;;10.68;9.53;;;;;;;17.89;100.00;99129.55;1699254;83;20967;-74
2021/08/31 04:20:24;;;;;;;13.38;10.05;;;;;;;17.89;100.00;99131.48;1702803;84;21042;-72
2021/08/31 04:22:52;;;;;;;10.65;9.55;;;;;;;17.88;100.00;99137.48;1703399;84;20999;-74
2021/08/31 04:25:19;;;;;;;14.28;11.18;;;;;;;17.85;100.00;99134.00;1700609;84;21146;-73
2021/08/31 04:27:48;;;;;;;11.88;9.80;;;;;;;17.82;100.00;99127.84;1667163;84;20951;-74
2021/08/31 04:30:15;;;;;;;11.25;9.63;;;;;;;17.80;100.00;99130.86;1703494;84;20998;-74
2021/08/31 04:32:42;;;;;;;12.82;9.50;;;;;;;17.80;100.00;99132.22;1703405;83;20994;-74
2021/08/31 04:35:09;;;;;;;17.35;10.18;;;;;;;17.80;100.00;99134.94;1678520;84;20998;-73
2021/08/31 04:37:38;;;;;;;11.57;10.10;;;;;;;17.80;100.00;99128.14;1703167;84;20997;-74
2021/08/31 04:40:06;;;;;;;12.47;9.70;;;;;;;17.81;100.00;99131.11;1678913;84;21601;-73
2021/08/31 04:42:32;;;;;;;13.95;9.30;;;;;;;17.82;100.00;99130.56;1693647;83;21066;-75
2021/08/31 04:45:01;;;;;;;13.15;9.83;;;;;;;17.81;100.00;99135.20;1709824;83;20900;-73
2021/08/31 04:47:27;;;;;;;10.85;9.43;;;;;;;17.82;100.00;99141.44;1702447;84;21545;-77
2021/08/31 04:49:54;;;;;;;9.85;8.63;;;;;;;17.82;100.00;99133.28;1703018;84;21094;-76
2021/08/31 04:52:20;;;;;;;9.55;8.55;;;;;;;17.81;100.00;99136.55;1703588;84;21018;-74
2021/08/31 04:54:46;;;;;;;9.50;8.45;;;;;;;17.81;100.00;99132.47;1703191;84;20974;-74
2021/08/31 04:57:13;;;;;;;10.95;8.60;;;;;;;17.81;100.00;99132.47;1658174;85;21038;-74
2021/08/31 04:59:39;;;;;;;9.58;8.50;;;;;;;17.78;100.00;99122.23;1673711;85;20975;-74
2021/08/31 05:02:06;;;;;;;10.48;9.35;;;;;;;17.78;100.00;99126.86;1650199;85;21911;-75
2021/08/31 05:04:32;;;;;;;11.30;9.50;;;;;;;17.77;100.00;99119.81;1650722;84;21007;-74
2021/08/31 05:07:00;;;;;;;13.43;9.25;;;;;;;17.76;100.00;99138.05;1691732;84;20974;-75
2021/08/31 05:09:26;;;;;;;11.25;10.10;;;;;;;17.75;100.00;99132.34;1665834;84;21054;-73
2021/08/31 05:11:52;;;;;;;10.68;9.45;;;;;;;17.75;100.00;99146.50;1703455;84;21051;-75
2021/08/31 05:14:19;;;;;;;11.75;9.63;;;;;;;17.77;100.00;99168.77;1703022;84;21758;-72
2021/08/31 05:16:46;;;;;;;16.67;12.53;;;;;;;17.77;100.00;99164.69;1701669;83;22152;-75
2021/08/31 05:19:12;;;;;;;12.30;10.65;;;;;;;17.77;100.00;99148.37;1687683;83;20992;-76
2021/08/31 05:21:39;;;;;;;11.53;10.13;;;;;;;17.77;100.00;99157.34;1665098;85;21048;-74
2021/08/31 05:24:05;;;;;;;13.10;10.43;;;;;;;17.72;100.00;99156.66;1660597;85;21051;-75
2021/08/31 05:26:32;;;;;;;10.98;9.30;;;;;;;17.68;100.00;99159.20;1655854;86;21578;-74
2021/08/31 05:28:58;;;;;;;9.95;8.40;;;;;;;17.65;100.00;99157.08;1659167;86;20975;-74
2021/08/31 05:31:25;;;;;;;13.95;9.70;;;;;;;17.65;100.00;99186.22;1659175;85;21063;-76
2021/08/31 05:33:51;;;;;;;15.43;8.23;;;;;;;17.58;100.00;99162.13;1656072;86;21584;-75
2021/08/31 05:36:18;;;;;;;9.88;8.98;;;;;;;17.53;100.00;99164.16;1659363;86;21032;-75
2021/08/31 05:38:44;;;;;;;9.78;8.80;;;;;;;17.48;100.00;99162.36;1656025;86;21069;-75
2021/08/31 05:41:11;;;;;;;13.32;8.90;;;;;;;17.46;100.00;99161.86;1674128;85;20975;-76
2021/08/31 05:43:37;;;;;;;11.33;8.25;;;;;;;17.43;100.00;99163.29;1690291;83;21072;-75
2021/08/31 05:46:03;;;;;;;8.53;6.72;;;;;;;17.41;100.00;99176.92;1661685;85;20943;-77
2021/08/31 05:48:31;;;;;;;10.95;7.75;;;;;;;17.38;100.00;99162.05;1683892;84;21006;-76
2021/08/31 05:50:57;;;;;;;8.40;7.55;;;;;;;17.34;100.00;99152.91;1661638;85;21023;-77
2021/08/31 05:53:23;;;;;;;11.55;8.40;;;;;;;17.35;100.00;99164.03;1661466;85;21266;-75
2021/08/31 05:55:50;;;;;;;8.23;6.97;;;;;;;17.35;100.00;99187.14;1668904;85;21055;-75
2021/08/31 05:58:17;;;;;;;8.23;6.72;;;;;;;17.31;100.00;99154.86;1680086;84;20991;-74
2021/08/31 06:00:44;;;;;;;7.35;6.20;;;;;;;17.32;100.00;99161.09;1684182;84;21492;-76
2021/08/31 06:03:10;;;;;;;7.67;5.62;;;;;;;17.33;100.00;99161.36;1684241;85;21095;-73
2021/08/31 06:05:38;;;;;;;12.40;6.67;;;;;;;17.36;100.00;99182.51;1664713;85;21000;-74
2021/08/31 06:08:04;;;;;;;9.45;6.42;;;;;;;17.36;100.00;99172.99;1668919;85;21095;-74
2021/08/31 06:10:32;;;;;;;9.18;6.75;;;;;;;17.33;100.00;99183.10;1684799;85;20951;-76
2021/08/31 06:13:00;;;;;;;6.55;5.58;;;;;;;17.30;100.00;99180.45;1685108;85;21068;-78
2021/08/31 06:15:28;;;;;;;9.05;6.55;;;;;;;17.26;99.17;99169.14;1684714;85;22001;-76
2021/08/31 06:17:54;;;;;;;5.65;5.15;;;;;;;17.23;97.48;99177.89;1684833;84;21014;-76
2021/08/31 06:20:20;;;;;;;8.43;5.00;;;;;;;17.21;97.35;99165.98;1670556;84;21007;-76
2021/08/31 06:22:47;;;;;;;6.55;5.95;;;;;;;17.20;97.26;99192.09;1657415;86;21074;-75
2021/08/31 06:25:13;;;;;;;10.65;6.03;;;;;;;17.17;95.76;99190.78;1638133;86;21054;-76
2021/08/31 06:27:39;;;;;;;6.37;5.78;;;;;;;17.17;95.81;99178.55;1655913;86;21849;-76
2021/08/31 06:30:09;;;;;;;9.28;6.08;;;;;;;17.18;96.23;99164.41;1668048;85;20986;-76
2021/08/31 06:32:35;;;;;;;5.85;5.30;;;;;;;17.22;96.89;99168.92;1684947;84;20987;-76
2021/08/31 06:35:01;;;;;;;9.50;5.45;;;;;;;17.28;96.35;99186.73;1659548;85;21051;-78
2021/08/31 06:37:28;;;;;;;12.55;4.95;;;;;;;17.32;95.67;99167.34;1658364;84;21481;-77
2021/08/31 06:39:54;;;;;;;9.00;4.90;;;;;;;17.37;93.98;99170.50;1657437;86;21101;-77
2021/08/31 06:42:20;;;;;;;4.83;4.42;;;;;;;17.40;92.07;99199.81;1638169;86;20928;-78
2021/08/31 06:44:47;;;;;;;4.92;4.45;;;;;;;17.42;90.87;99192.13;1657183;85;21055;-78
2021/08/31 06:47:13;;;;;;;9.60;5.30;;;;;;;17.46;90.94;99182.83;1677371;85;21650;-77
2021/08/31 06:49:40;;;;;;;6.08;5.47;;;;;;;17.52;90.98;99176.95;1661118;85;21450;-79
2021/08/31 06:52:07;;;;;;;4.80;4.40;;;;;;;17.57;90.73;99186.34;1661014;85;21080;-77
2021/08/31 06:54:33;;;;;;;6.20;5.33;;;;;;;17.65;90.91;99172.03;1685080;85;21541;-79
2021/08/31 06:57:00;;;;;;;5.75;3.90;;;;;;;17.75;90.83;99170.98;1663533;84;21005;-83
2021/08/31 06:59:26;;;;;;;4.60;4.20;;;;;;;17.85;90.38;99172.09;1686613;85;21051;-78
2021/08/31 07:01:53;;;;;;;4.33;3.92;;;;;;;17.93;87.36;99174.64;1660817;85;21083;-79
2021/08/31 07:04:19;;;;;;;5.72;4.45;;;;;;;17.96;85.44;99176.17;1690243;84;21092;-84
2021/08/31 07:06:45;;;;;;;5.25;3.80;;;;;;;18.04;84.77;99196.38;1666111;84;21034;-82
2021/08/31 07:09:13;;;;;;;4.12;3.83;;;;;;;18.06;83.11;99192.25;1664280;84;21406;-81
2021/08/31 07:11:39;;;;;;;5.33;3.92;;;;;;;18.08;83.23;99188.64;1684032;84;21079;-83
2021/08/31 07:14:06;;;;;;;4.25;3.70;;;;;;;18.12;83.85;99194.29;1651020;86;21044;-82
2021/08/31 07:16:34;;;;;;;3.83;3.52;;;;;;;18.16;82.06;99193.35;1634368;86;21607;-84
2021/08/31 07:19:02;;;;;;;3.40;3.10;;;;;;;18.22;80.70;99219.89;1677076;84;20951;-79
2021/08/31 07:21:30;;;;;;;3.90;3.60;;;;;;;18.26;80.02;99224.40;1679646;84;21584;-82
2021/08/31 07:23:56;;;;;;;7.72;4.40;;;;;;;18.30;79.94;99206.33;1675376;84;21121;-84
2021/08/31 07:26:24;;;;;;;4.30;3.90;;;;;;;18.35;79.91;99211.38;1653564;84;21595;-85
2021/08/31 07:28:50;;;;;;;5.53;3.20;;;;;;;18.40;80.17;99201.72;1721272;82;21140;-85
2021/08/31 07:31:17;;;;;;;3.65;3.20;;;;;;;18.42;77.67;99239.76;1721274;83;21067;-83
2021/08/31 07:33:48;;;;;;;5.25;3.33;;;;;;;18.47;76.95;99228.73;1716712;83;21104;-84
2021/08/31 07:36:14;;;;;;;6.15;3.45;;;;;;;18.50;77.28;99211.79;1690801;84;21095;-83
2021/08/31 07:38:41;;;;;;;6.47;3.77;;;;;;;18.55;77.69;99206.80;1703555;84;21031;-85
2021/08/31 07:41:07;;;;;;;3.80;3.50;;;;;;;18.63;78.48;99209.55;1701962;84;21182;-86
2021/08/31 07:43:34;;;;;;;4.83;3.30;;;;;;;18.71;77.98;99217.49;1686096;84;21817;-86
2021/08/31 07:46:00;;;;;;;3.35;2.98;;;;;;;18.78;77.32;99223.86;1683813;84;20934;-86
2021/08/31 07:48:27;;;;;;;4.12;3.72;;;;;;;18.83;76.63;99223.16;1703631;83;21018;-82
2021/08/31 07:50:54;;;;;;;3.80;3.50;;;;;;;18.89;75.44;99221.11;1703548;83;21070;-84
2021/08/31 07:53:20;;;;;;;4.17;3.75;;;;;;;18.93;75.04;99224.24;1703534;84;21126;-84
2021/08/31 07:55:47;;;;;;;3.42;3.12;;;;;;;19.00;75.40;99227.30;1702313;84;21535;-83
2021/08/31 07:58:14;;;;;;;6.08;3.27;;;;;;;19.05;73.97;99218.97;1703353;83;21042;-86
2021/08/31 08:00:41;;;;;;;4.17;3.77;;;;;;;19.08;73.06;99250.27;1678997;84;21055;-85
2021/08/31 08:03:07;;;;;;;3.22;3.02;;;;;;;19.12;73.51;99225.34;1703327;84;21041;-83
2021/08/31 08:05:34;;;;;;;3.25;3.05;;;;;;;19.17;73.47;99218.38;1703296;84;21083;-84
2021/08/31 08:08:00;;;;;;;3.45;3.15;;;;;;;19.24;71.79;99221.42;1661498;85;20952;-81
2021/08/31 08:10:27;;;;;;;3.58;3.27;;;;;;;19.27;71.51;99231.70;1702324;84;20983;-83
2021/08/31 08:12:53;;;;;;;3.65;3.35;;;;;;;19.31;71.18;99232.67;1704381;84;21096;-84
2021/08/31 08:15:21;;;;;;;3.60;3.35;;;;;;;19.32;70.59;99230.75;1703973;83;21601;-86
2021/08/31 08:17:48;;;;;;;4.03;3.72;;;;;;;19.33;70.46;99212.69;1704450;83;21025;-85
2021/08/31 08:20:15;;;;;;;3.70;3.40;;;;;;;19.38;71.82;99226.17;1673116;85;20979;-86
2021/08/31 08:22:41;;;;;;;3.45;3.15;;;;;;;19.41;71.30;99218.73;1686079;84;21011;-86
2021/08/31 08:25:10;;;;;;;3.67;3.37;;;;;;;19.46;70.88;99213.16;1679250;84;22216;-83
2021/08/31 08:27:36;;;;;;;4.42;3.45;;;;;;;19.52;71.57;99218.67;1656451;86;21085;-86
2021/08/31 08:30:04;;;;;;;3.45;3.15;;;;;;;19.60;71.31;99218.45;1659297;86;21253;-84
2021/08/31 08:32:30;;;;;;;4.40;3.72;;;;;;;19.69;71.50;99222.53;1677502;85;21008;-85
2021/08/31 08:34:57;;;;;;;5.80;3.62;;;;;;;19.78;70.62;99220.05;1685184;84;20948;-85
2021/08/31 08:37:24;;;;;;;3.72;3.42;;;;;;;19.87;70.29;99220.03;1677286;84;21582;-85
2021/08/31 08:39:51;;;;;;;3.60;3.30;;;;;;;19.95;69.86;99219.25;1657598;86;21027;-82
2021/08/31 08:42:17;;;;;;;4.37;3.47;;;;;;;20.02;69.54;99226.37;1634089;86;21302;-85
2021/08/31 08:44:45;;;;;;;5.65;4.03;;;;;;;20.09;69.04;99230.79;1678414;85;21492;-85
2021/08/31 08:47:12;;;;;;;3.35;3.05;;;;;;;20.17;68.67;99234.62;1684832;85;21023;-85
2021/08/31 08:49:43;;;;;;;4.30;3.90;;;;;;;20.22;68.39;99235.26;1685484;85;20992;-83
2021/08/31 08:52:10;;;;;;;4.20;3.80;;;;;;;20.29;68.59;99240.20;1663667;83;21489;-85
2021/08/31 08:54:36;;;;;;;4.78;4.35;;;;;;;20.36;66.33;99243.28;1661062;85;21784;-83
2021/08/31 08:57:04;;;;;;;4.35;3.95;;;;;;;20.36;66.33;99243.28;1681399;85;21012;-83
2021/08/31 08:59:30;;;;;;;4.67;4.17;;;;;;;20.37;66.95;99247.63;1685219;85;21496;-83
2021/08/31 09:01:57;;;;;;;4.85;4.45;;;;;;;20.36;67.04;99241.92;1662477;84;21059;-88
2021/08/31 09:04:46;;;;;;;4.83;4.42;;;;;;;20.38;67.96;99236.95;1670108;85;20979;-85
2021/08/31 09:07:27;;;;;;;4.83;4.42;;;;;;;20.38;67.96;99236.95;1650703;86;21239;-85
2021/08/31 09:10:23;;;;;;;6.35;4.30;;;;;;;20.39;68.34;99237.97;1668617;85;21100;-82
2021/08/31 09:12:52;;;;;;;5.17;4.78;;;;;;;20.40;67.12;99229.21;1685347;85;20896;-84
2021/08/31 09:15:37;;;;;;;5.12;4.72;;;;;;;20.45;66.77;99214.02;1685128;84;20995;-86
2021/08/31 09:18:13;;;;;;;5.62;5.12;;;;;;;20.45;66.77;99214.02;1661102;85;21063;-85
2021/08/31 09:20:44;;;;;;;5.78;5.17;;;;;;;20.52;67.37;99208.86;1677784;84;21159;-85
2021/08/31 09:23:11;;;;;;;5.75;5.15;;;;;;;20.60;67.63;99232.61;1702453;83;21022;-83
2021/08/31 09:25:42;;;;;;;6.12;5.15;;;;;;;20.67;66.66;99226.64;1679670;84;21047;-84
2021/08/31 09:28:25;;;;;;;8.35;5.10;;;;;;;20.71;66.92;99223.48;1674995;85;20969;-82
2021/08/31 09:31:07;;;;;;;5.00;4.60;;;;;;;20.76;66.82;99229.58;1675354;85;20972;-84
2021/08/31 09:33:41;;;;;;;10.08;5.12;;;;;;;20.80;65.67;99227.79;1675090;85;22164;-83
2021/08/31 09:36:17;;;;;;;6.78;4.95;;;;;;;20.90;66.03;99218.42;1651284;84;21049;-86
2021/08/31 09:39:00;;;;;;;5.37;4.87;;;;;;;21.00;65.91;99229.55;1681108;84;21089;-84
2021/08/31 09:41:36;;;;;;;5.20;4.80;;;;;;;21.07;64.92;99236.09;1680012;84;21036;-85
2021/08/31 09:44:22;;;;;;;6.40;4.35;;;;;;;21.07;63.74;99237.45;1697614;84;21054;-83
2021/08/31 09:47:01;;;;;;;4.95;4.35;;;;;;;21.06;63.92;99236.41;1671549;84;21348;-86
2021/08/31 09:49:32;;;;;;;4.25;3.85;;;;;;;21.06;63.16;99241.88;1703257;83;20947;-87
2021/08/31 09:52:12;;;;;;;5.47;4.95;;;;;;;21.08;62.12;99254.67;1656512;85;21050;-84
2021/08/31 09:54:47;;;;;;;5.95;4.58;;;;;;;21.05;62.43;99246.58;1649653;85;21479;-81
2021/08/31 09:57:41;;;;;;;4.60;4.22;;;;;;;21.01;63.03;99240.13;1704574;84;20995;-88
2021/08/31 10:00:09;;;;;;;6.95;4.03;;;;;;;20.97;61.54;99235.66;1703155;83;21483;-92
2021/08/31 10:02:37;;;;;;;3.87;3.58;;;;;;;20.95;61.87;99254.34;1703280;83;20955;-91
2021/08/31 10:05:06;;;;;;;5.60;4.75;;;;;;;20.95;62.14;99251.61;1702420;84;20891;-91
2021/08/31 10:07:32;;;;;;;5.40;4.90;;;;;;;20.95;62.74;99235.20;1721810;83;21015;-91
2021/08/31 10:10:00;;;;;;;4.92;4.47;;;;;;;20.97;63.37;99224.72;1721746;83;21620;-91
2021/08/31 10:12:27;;;;;;;7.92;5.08;;;;;;;21.06;62.94;99239.14;1670325;85;21258;-90
2021/08/31 10:14:55;;;;;;;6.58;5.05;;;;;;;21.13;61.88;99238.07;1660964;85;21008;-91
2021/08/31 10:17:29;;;;;;;5.05;4.65;;;;;;;21.17;60.43;99252.72;1674887;85;20965;-91
2021/08/31 10:20:01;;;;;;;5.22;4.72;;;;;;;21.17;60.05;99237.67;1648944;85;20990;-79
2021/08/31 10:22:28;;;;;;;4.67;4.28;;;;;;;21.20;60.33;99243.27;1698158;84;21064;-84
2021/08/31 10:24:54;;;;;;;5.30;4.80;;;;;;;21.25;60.53;99255.39;1678888;84;21372;-80
2021/08/31 10:27:42;;;;;;;5.10;4.70;;;;;;;21.31;59.93;99254.08;1703081;84;21669;-81
2021/08/31 10:30:20;;;;;;;5.12;4.72;;;;;;;21.38;58.96;99244.55;1651199;85;21022;-81
2021/08/31 10:32:57;;;;;;;4.70;4.30;;;;;;;21.41;58.59;99261.10;1676795;84;22683;-77
2021/08/31 10:35:36;;;;;;;4.78;3.75;;;;;;;21.44;57.72;99250.85;1699890;84;21050;-76
2021/08/31 10:38:06;;;;;;;3.20;3.00;;;;;;;21.51;57.25;99258.55;1665762;84;21106;-75
2021/08/31 10:40:41;;;;;;;3.30;3.10;;;;;;;21.58;56.29;99260.20;1664593;84;21583;-84
2021/08/31 10:43:11;;;;;;;4.28;3.58;;;;;;;21.64;56.72;99256.91;1679068;84;21046;-81
2021/08/31 10:45:52;;;;;;;5.72;3.33;;;;;;;21.72;56.41;99263.47;1676941;84;21050;-77
2021/08/31 10:48:27;;;;;;;3.65;3.35;;;;;;;21.80;55.47;99254.38;1676503;84;21090;-77
2021/08/31 10:51:01;;;;;;;4.35;2.95;;;;;;;21.88;54.64;99260.91;1692136;84;21067;-84
2021/08/31 10:53:48;;;;;;;5.90;3.40;;;;;;;21.94;54.85;99259.05;1703109;84;21062;-76
2021/08/31 10:56:28;;;;;;;3.92;3.62;;;;;;;22.03;54.67;99254.85;1703824;84;20974;-78
2021/08/31 10:59:07;;;;;;;6.28;3.35;;;;;;;22.17;54.85;99246.58;1703544;84;21019;-76
2021/08/31 11:01:40;;;;;;;4.08;3.77;;;;;;;22.33;54.81;99255.54;1703675;83;20943;-81
2021/08/31 11:04:29;;;;;;;4.87;3.45;;;;;;;22.37;54.04;99246.30;1702468;84;21539;-85
2021/08/31 11:07:00;;;;;;;3.22;2.85;;;;;;;22.40;53.65;99273.02;1689218;83;21073;-80
2021/08/31 11:09:27;;;;;;;3.17;2.87;;;;;;;22.38;51.48;99262.18;1681283;84;21594;-84
2021/08/31 11:12:10;;;;;;;3.05;2.77;;;;;;;22.35;51.21;99260.13;1693055;84;21038;-81
2021/08/31 11:14:46;;;;;;;2.98;2.77;;;;;;;22.35;50.97;99263.64;1676340;84;21549;-84
2021/08/31 11:17:38;;;;;;;2.87;2.60;;;;;;;22.42;51.54;99257.05;1703549;84;21027;-84
2021/08/31 11:20:21;;;;;;;2.58;2.37;;;;;;;22.55;51.56;99261.41;1694567;84;21066;-81
2021/08/31 11:22:51;;;;;;;2.72;2.52;;;;;;;22.70;50.95;99257.78;1685354;85;20944;-82
2021/08/31 11:25:33;;;;;;;2.98;2.50;;;;;;;22.79;50.13;99279.88;1685302;85;21011;-77
2021/08/31 11:28:04;;;;;;;3.25;2.80;;;;;;;22.87;49.83;99269.97;1668852;84;21031;-75
2021/08/31 11:30:56;;;;;;;2.77;2.55;;;;;;;22.88;49.73;99271.54;1659254;86;21843;-75
2021/08/31 11:33:33;;;;;;;3.10;2.90;;;;;;;22.91;49.65;99258.53;1616286;87;21096;-78
2021/08/31 11:36:06;;;;;;;3.22;2.98;;;;;;;22.90;49.83;99266.53;1645397;86;20988;-82